createdAt,value
2018-11-07T00:00:10.938Z,14.1
2018-11-07T00:01:12.102Z,14
2018-11-07T00:02:13.612Z,14
2018-11-07T00:03:15.091Z,14.1
2018-11-07T00:04:19.235Z,14.1
2018-11-07T00:05:20.447Z,14.1
2018-11-07T00:06:21.664Z,14
2018-11-07T00:07:22.967Z,14.1
2018-11-07T00:08:25.535Z,14
2018-11-07T00:09:26.706Z,14
2018-11-07T00:10:28.130Z,14
2018-11-07T00:11:29.290Z,14
2018-11-07T00:12:30.749Z,14
2018-11-07T00:13:31.921Z,14
2018-11-07T00:14:33.090Z,14.1
2018-11-07T00:15:34.285Z,14.1
2018-11-07T00:16:38.239Z,14.1
2018-11-07T00:17:40.091Z,14.1
2018-11-07T00:18:41.250Z,14
2018-11-07T00:19:42.471Z,14.1
2018-11-07T00:20:43.665Z,14.1
2018-11-07T00:21:46.114Z,14.1
2018-11-07T00:22:47.605Z,14.1
2018-11-07T00:23:48.825Z,14.1
2018-11-07T00:24:50.250Z,14.1
2018-11-07T00:25:51.430Z,14
2018-11-07T00:26:52.631Z,14.1
2018-11-07T00:27:53.832Z,14.1
2018-11-07T00:28:55.057Z,14.1
2018-11-07T00:29:56.273Z,14.1
2018-11-07T00:30:57.488Z,14.1
2018-11-07T00:31:58.662Z,13.9
2018-11-07T00:33:00.155Z,13.9
2018-11-07T00:34:04.312Z,14
2018-11-07T00:35:05.613Z,14
2018-11-07T00:36:06.692Z,13.9
2018-11-07T00:37:07.933Z,13.9
2018-11-07T00:38:09.203Z,13.9
2018-11-07T00:39:10.370Z,13.9
2018-11-07T00:40:11.820Z,13.6
2018-11-07T00:41:43.298Z,13.8
2018-11-07T00:42:46.450Z,13.8
2018-11-07T00:43:49.184Z,13.7
2018-11-07T00:44:50.401Z,13.9
2018-11-07T00:45:51.546Z,13.9
2018-11-07T00:46:52.741Z,13.8
2018-11-07T00:47:56.298Z,13.8
2018-11-07T00:48:57.615Z,13.8
2018-11-07T00:49:59.525Z,13.9
2018-11-07T00:51:00.746Z,14
2018-11-07T00:52:02.102Z,14
2018-11-07T00:53:03.348Z,13.9
2018-11-07T00:54:07.622Z,13.9
2018-11-07T00:55:08.908Z,13.9
2018-11-07T00:56:10.344Z,13.9
2018-11-07T00:57:11.876Z,13.8
2018-11-07T00:58:13.316Z,13.7
2018-11-07T00:59:14.721Z,13.7
2018-11-07T01:00:15.926Z,13.7
2018-11-07T01:01:17.094Z,13.7
2018-11-07T01:02:18.315Z,13.7
2018-11-07T01:03:19.628Z,13.8
2018-11-07T01:04:21.276Z,13.6
2018-11-07T01:05:22.446Z,13.6
2018-11-07T01:06:23.624Z,13.5
2018-11-07T01:07:24.801Z,13.5
2018-11-07T01:08:26.049Z,13.5
2018-11-07T01:09:27.314Z,13.6
2018-11-07T01:10:28.613Z,13.5
2018-11-07T01:11:29.802Z,13.5
2018-11-07T01:12:30.989Z,13.5
2018-11-07T01:13:35.114Z,13.5
2018-11-07T01:14:39.293Z,13.4
2018-11-07T01:15:40.665Z,13.4
2018-11-07T01:16:41.857Z,13.4
2018-11-07T01:17:46.097Z,13.4
2018-11-07T01:18:47.727Z,13.5
2018-11-07T01:19:49.211Z,13.5
2018-11-07T01:20:50.412Z,13.3
2018-11-07T01:21:51.592Z,13.5
2018-11-07T01:22:52.754Z,13.4
2018-11-07T01:23:53.958Z,13.5
2018-11-07T01:24:55.217Z,13.5
2018-11-07T01:25:56.674Z,13.4
2018-11-07T01:26:57.897Z,13.4
2018-11-07T01:27:59.468Z,13.4
2018-11-07T01:29:01.383Z,13.4
2018-11-07T01:30:05.387Z,13.4
2018-11-07T01:31:06.554Z,13.2
2018-11-07T01:32:07.736Z,13.1
2018-11-07T01:33:08.910Z,13.1
2018-11-07T01:34:10.102Z,13
2018-11-07T01:35:11.340Z,13
2018-11-07T01:36:12.486Z,13
2018-11-07T01:37:13.648Z,13.1
2018-11-07T01:38:14.832Z,13.2
2018-11-07T01:39:16.047Z,13.2
2018-11-07T01:40:17.246Z,13.3
2018-11-07T01:41:18.434Z,13.4
2018-11-07T01:42:19.636Z,13.4
2018-11-07T01:43:20.841Z,13.3
2018-11-07T01:44:22.018Z,13.3
2018-11-07T01:45:23.306Z,13.4
2018-11-07T01:46:24.490Z,13.4
2018-11-07T01:47:25.653Z,13.4
2018-11-07T01:48:26.880Z,13.3
2018-11-07T01:49:28.100Z,13.3
2018-11-07T01:50:33.857Z,13.3
2018-11-07T01:51:35.050Z,13.2
2018-11-07T01:52:36.205Z,13.3
2018-11-07T01:53:37.388Z,13.3
2018-11-07T01:54:41.395Z,13.1
2018-11-07T01:55:42.599Z,13.2
2018-11-07T01:56:43.774Z,13.4
2018-11-07T01:57:45.002Z,13.4
2018-11-07T01:58:46.199Z,13.3
2018-11-07T01:59:47.415Z,13.2
2018-11-07T02:00:48.662Z,13.2
2018-11-07T02:01:49.834Z,13.2
2018-11-07T02:02:51.023Z,13.3
2018-11-07T02:03:52.297Z,13.2
2018-11-07T02:04:53.473Z,13.3
2018-11-07T02:05:54.734Z,13.3
2018-11-07T02:06:55.910Z,13.4
2018-11-07T02:07:57.269Z,13.4
2018-11-07T02:08:58.416Z,13.3
2018-11-07T02:09:59.600Z,13.3
2018-11-07T02:11:00.815Z,13.1
2018-11-07T02:12:02.012Z,13.2
2018-11-07T02:13:06.145Z,13.1
2018-11-07T02:14:07.541Z,13.2
2018-11-07T02:15:08.886Z,13.2
2018-11-07T02:16:10.123Z,13.1
2018-11-07T02:17:11.277Z,13.2
2018-11-07T02:18:12.624Z,13.1
2018-11-07T02:19:14.121Z,13.2
2018-11-07T02:20:15.282Z,13.2
2018-11-07T02:21:18.594Z,13.2
2018-11-07T02:22:22.299Z,13.1
2018-11-07T02:23:23.681Z,13.1
2018-11-07T02:24:24.873Z,13.2
2018-11-07T02:25:27.147Z,13.3
2018-11-07T02:26:28.695Z,13.2
2018-11-07T02:27:35.961Z,13.2
2018-11-07T02:28:37.118Z,13.3
2018-11-07T02:29:38.293Z,13.3
2018-11-07T02:30:40.532Z,13.3
2018-11-07T02:31:41.758Z,13.2
2018-11-07T02:32:42.970Z,13.1
2018-11-07T02:33:44.163Z,13
2018-11-07T02:34:45.471Z,13.2
2018-11-07T02:35:57.391Z,13.1
2018-11-07T02:36:58.727Z,13.1
2018-11-07T02:37:59.867Z,13.1
2018-11-07T02:39:03.854Z,13.2
2018-11-07T02:40:07.435Z,13.2
2018-11-07T02:41:08.879Z,13.2
2018-11-07T02:42:10.306Z,13.2
2018-11-07T02:43:11.518Z,13.2
2018-11-07T02:44:12.894Z,13.2
2018-11-07T02:45:14.060Z,13.3
2018-11-07T02:46:19.177Z,13.2
2018-11-07T02:47:20.398Z,13.3
2018-11-07T02:48:21.595Z,13.3
2018-11-07T02:49:22.870Z,13.2
2018-11-07T02:50:28.189Z,13.2
2018-11-07T02:51:29.394Z,13.2
2018-11-07T02:52:32.275Z,13.2
2018-11-07T02:53:36.329Z,13.1
2018-11-07T02:54:37.420Z,13.2
2018-11-07T02:55:38.652Z,13.1
2018-11-07T02:56:39.825Z,13.2
2018-11-07T02:57:41.228Z,13.2
2018-11-07T02:58:42.662Z,13.4
2018-11-07T02:59:46.371Z,13.4
2018-11-07T03:00:47.554Z,13.5
2018-11-07T03:01:48.762Z,13.6
2018-11-07T03:02:50.169Z,13.6
2018-11-07T03:03:51.374Z,13.6
2018-11-07T03:04:52.530Z,13.6
2018-11-07T03:05:53.717Z,13.6
2018-11-07T03:06:55.981Z,13.6
2018-11-07T03:07:57.272Z,13.7
2018-11-07T03:09:03.505Z,13.6
2018-11-07T03:10:07.178Z,13.6
2018-11-07T03:11:08.296Z,13.7
2018-11-07T03:12:09.463Z,13.6
2018-11-07T03:13:10.854Z,13.7
2018-11-07T03:14:14.429Z,13.7
2018-11-07T03:15:18.073Z,13.8
2018-11-07T03:16:19.310Z,13.8
2018-11-07T03:17:20.504Z,13.8
2018-11-07T03:18:21.713Z,13.8
2018-11-07T03:19:22.909Z,13.8
2018-11-07T03:20:25.078Z,13.7
2018-11-07T03:21:27.574Z,13.8
2018-11-07T03:22:33.885Z,13.9
2018-11-07T03:23:35.123Z,13.9
2018-11-07T03:24:36.317Z,13.9
2018-11-07T03:25:42.471Z,13.9
2018-11-07T03:26:43.633Z,13.9
2018-11-07T03:27:44.803Z,13.9
2018-11-07T03:28:45.998Z,14
2018-11-07T03:29:47.299Z,14
2018-11-07T03:30:48.724Z,14
2018-11-07T03:31:52.400Z,14.1
2018-11-07T03:32:54.589Z,14
2018-11-07T03:33:55.835Z,14
2018-11-07T03:34:57.024Z,14
2018-11-07T03:36:02.583Z,14
2018-11-07T03:37:05.796Z,14
2018-11-07T03:38:07.006Z,14
2018-11-07T03:39:08.505Z,14
2018-11-07T03:40:09.678Z,14
2018-11-07T03:41:11.146Z,14
2018-11-07T03:42:12.332Z,13.9
2018-11-07T03:43:14.323Z,13.9
2018-11-07T03:44:15.549Z,13.9
2018-11-07T03:45:16.703Z,13.9
2018-11-07T03:46:18.905Z,14
2018-11-07T03:47:20.114Z,14
2018-11-07T03:48:21.313Z,13.9
2018-11-07T03:49:22.535Z,13.8
2018-11-07T03:50:23.872Z,13.9
2018-11-07T03:51:25.068Z,13.8
2018-11-07T03:52:26.307Z,13.9
2018-11-07T03:53:27.510Z,13.9
2018-11-07T03:54:28.744Z,13.8
2018-11-07T03:55:31.164Z,13.8
2018-11-07T03:56:47.093Z,13.6
2018-11-07T03:57:48.276Z,13.8
2018-11-07T03:58:50.102Z,13.8
2018-11-07T03:59:53.691Z,13.8
2018-11-07T04:00:54.962Z,13.8
2018-11-07T04:01:56.241Z,13.8
2018-11-07T04:02:57.404Z,13.9
2018-11-07T04:03:58.656Z,13.9
2018-11-07T04:05:02.474Z,13.9
2018-11-07T04:06:03.927Z,13.8
2018-11-07T04:07:05.117Z,13.9
2018-11-07T04:08:06.317Z,13.9
2018-11-07T04:09:07.809Z,13.9
2018-11-07T04:10:11.551Z,13.8
2018-11-07T04:11:15.167Z,13.8
2018-11-07T04:12:16.579Z,13.9
2018-11-07T04:13:17.842Z,13.7
2018-11-07T04:14:19.084Z,13.7
2018-11-07T04:15:22.754Z,13.7
2018-11-07T04:16:23.929Z,13.7
2018-11-07T04:17:27.290Z,13.8
2018-11-07T04:18:28.569Z,13.8
2018-11-07T04:19:29.801Z,13.8
2018-11-07T04:20:31.016Z,13.8
2018-11-07T04:21:33.481Z,13.7
2018-11-07T04:22:34.674Z,13.7
2018-11-07T04:23:35.896Z,13.8
2018-11-07T04:24:37.125Z,13.8
2018-11-07T04:25:38.320Z,13.7
2018-11-07T04:26:43.443Z,13.5
2018-11-07T04:27:47.553Z,13.7
2018-11-07T04:28:48.738Z,13.7
2018-11-07T04:29:51.284Z,13.6
2018-11-07T04:30:52.523Z,13.7
2018-11-07T04:31:53.685Z,13.7
2018-11-07T04:32:54.903Z,13.8
2018-11-07T04:33:56.079Z,13.6
2018-11-07T04:34:57.285Z,13.8
2018-11-07T04:36:00.736Z,13.6
2018-11-07T04:37:05.902Z,13.7
2018-11-07T04:38:07.104Z,13.6
2018-11-07T04:39:08.360Z,13.6
2018-11-07T04:40:09.490Z,13.7
2018-11-07T04:41:10.967Z,13.6
2018-11-07T04:42:12.136Z,13.4
2018-11-07T04:43:16.318Z,13.4
2018-11-07T04:44:17.562Z,13.5
2018-11-07T04:45:18.762Z,13.5
2018-11-07T04:46:19.967Z,13.4
2018-11-07T04:47:21.181Z,13.4
2018-11-07T04:48:22.372Z,13.6
2018-11-07T04:49:23.659Z,13.4
2018-11-07T04:50:24.832Z,13.5
2018-11-07T04:51:26.233Z,13.5
2018-11-07T04:52:30.642Z,13.4
2018-11-07T04:53:36.765Z,13.3
2018-11-07T04:54:37.999Z,13.5
2018-11-07T04:55:41.217Z,13.6
2018-11-07T04:56:45.287Z,13.6
2018-11-07T04:57:54.096Z,13.3
2018-11-07T04:58:55.291Z,13.5
2018-11-07T04:59:59.406Z,13.6
2018-11-07T05:01:00.887Z,13.6
2018-11-07T05:02:02.163Z,13.5
2018-11-07T05:03:03.398Z,13.6
2018-11-07T05:04:04.793Z,13.4
2018-11-07T05:05:06.051Z,13.5
2018-11-07T05:06:09.717Z,13.6
2018-11-07T05:07:11.270Z,13.6
2018-11-07T05:08:12.496Z,13.6
2018-11-07T05:09:13.656Z,13.6
2018-11-07T05:10:17.237Z,13.6
2018-11-07T05:11:19.674Z,13.6
2018-11-07T05:12:21.077Z,13.6
2018-11-07T05:13:22.293Z,13.7
2018-11-07T05:14:23.700Z,13.6
2018-11-07T05:15:24.886Z,13.6
2018-11-07T05:16:26.078Z,13.6
2018-11-07T05:17:28.839Z,13.7
2018-11-07T05:18:30.056Z,13.7
2018-11-07T05:19:31.270Z,13.6
2018-11-07T05:20:32.366Z,13.7
2018-11-07T05:21:33.537Z,13.6
2018-11-07T05:22:34.757Z,13.4
2018-11-07T05:23:38.583Z,13.4
2018-11-07T05:24:40.086Z,13.4
2018-11-07T05:25:41.274Z,13.4
2018-11-07T05:26:42.739Z,13.2
2018-11-07T05:27:44.001Z,13.4
2018-11-07T05:28:49.202Z,13.4
2018-11-07T05:29:50.433Z,13.5
2018-11-07T05:30:51.645Z,13.6
2018-11-07T05:31:52.896Z,13.6
2018-11-07T05:32:55.680Z,13.7
2018-11-07T05:33:56.882Z,14.3
2018-11-07T05:34:58.057Z,14.9
2018-11-07T05:36:01.215Z,15.4
2018-11-07T05:37:02.397Z,15.7
2018-11-07T05:38:03.633Z,15.9
2018-11-07T05:39:04.806Z,15.9
2018-11-07T05:40:06.219Z,15.9
2018-11-07T05:41:07.467Z,15.9
2018-11-07T05:42:11.034Z,16
2018-11-07T05:43:12.239Z,16.1
2018-11-07T05:44:13.513Z,16.2
2018-11-07T05:45:14.708Z,16.2
2018-11-07T05:46:15.911Z,16.2
2018-11-07T05:47:17.110Z,16.3
2018-11-07T05:48:18.381Z,16.3
2018-11-07T05:49:21.430Z,16.3
2018-11-07T05:50:25.716Z,16.4
2018-11-07T05:51:27.280Z,16.3
2018-11-07T05:52:31.422Z,16.4
2018-11-07T05:53:32.662Z,16.4
2018-11-07T05:54:35.119Z,16.4
2018-11-07T05:55:36.529Z,16.5
2018-11-07T05:56:37.731Z,16.6
2018-11-07T05:57:41.720Z,16.7
2018-11-07T05:58:43.294Z,16.7
2018-11-07T05:59:46.918Z,16.8
2018-11-07T06:00:48.356Z,16.9
2018-11-07T06:01:49.636Z,16.8
2018-11-07T06:02:50.847Z,16.9
2018-11-07T06:03:52.059Z,17
2018-11-07T06:04:55.297Z,17.1
2018-11-07T06:05:59.562Z,17.1
2018-11-07T06:07:04.429Z,17.1
2018-11-07T06:08:06.691Z,17
2018-11-07T06:09:07.948Z,16.9
2018-11-07T06:10:09.441Z,17
2018-11-07T06:11:11.984Z,17.1
2018-11-07T06:12:14.238Z,17.1
2018-11-07T06:13:15.698Z,17.1
2018-11-07T06:14:16.967Z,17.2
2018-11-07T06:15:20.802Z,17.1
2018-11-07T06:16:22.356Z,17
2018-11-07T06:17:23.502Z,17
2018-11-07T06:18:24.729Z,17
2018-11-07T06:19:26.046Z,17
2018-11-07T06:20:27.308Z,17.1
2018-11-07T06:21:34.235Z,17.1
2018-11-07T06:22:35.468Z,17.1
2018-11-07T06:23:39.102Z,17.1
2018-11-07T06:24:40.341Z,17.2
2018-11-07T06:25:42.647Z,17.3
2018-11-07T06:26:43.827Z,17.2
2018-11-07T06:27:45.037Z,17.4
2018-11-07T06:28:46.289Z,17.4
2018-11-07T06:29:50.357Z,17.4
2018-11-07T06:30:51.570Z,17.2
2018-11-07T06:31:53.119Z,17.3
2018-11-07T06:32:54.385Z,17.2
2018-11-07T06:33:58.309Z,17.1
2018-11-07T06:35:02.568Z,17.2
2018-11-07T06:36:03.804Z,17.4
2018-11-07T06:37:07.898Z,17.4
2018-11-07T06:38:09.178Z,17.3
2018-11-07T06:39:10.406Z,17.3
2018-11-07T06:40:11.700Z,17.3
2018-11-07T06:41:12.925Z,17.3
2018-11-07T06:42:14.189Z,17.5
2018-11-07T06:43:15.434Z,17.4
2018-11-07T06:44:19.751Z,17.5
2018-11-07T06:45:22.365Z,17.5
2018-11-07T06:46:23.611Z,17.6
2018-11-07T06:47:24.874Z,17.3
2018-11-07T06:48:34.055Z,17.3
2018-11-07T06:49:35.924Z,17.5
2018-11-07T06:50:37.154Z,17.5
2018-11-07T06:51:38.350Z,17.5
2018-11-07T06:52:42.609Z,17.5
2018-11-07T06:53:48.705Z,17.5
2018-11-07T06:54:52.618Z,17.5
2018-11-07T06:55:53.865Z,17.5
2018-11-07T06:56:55.310Z,17.6
2018-11-07T06:57:56.627Z,17.6
2018-11-07T06:58:57.803Z,17.5
2018-11-07T07:00:01.705Z,17.6
2018-11-07T07:01:03.290Z,17.6
2018-11-07T07:02:04.687Z,17.7
2018-11-07T07:03:07.255Z,17.7
2018-11-07T07:04:08.453Z,17.6
2018-11-07T07:05:12.333Z,17.6
2018-11-07T07:06:13.640Z,17.8
2018-11-07T07:07:14.947Z,17.8
2018-11-07T07:08:16.201Z,17.8
2018-11-07T07:09:17.450Z,18
2018-11-07T07:10:18.670Z,18
2018-11-07T07:11:23.378Z,18.1
2018-11-07T07:12:34.159Z,18
2018-11-07T07:13:37.660Z,18
2018-11-07T07:14:41.793Z,17.9
2018-11-07T07:15:45.129Z,17.9
2018-11-07T07:16:49.687Z,17.9
2018-11-07T07:17:57.122Z,17.9
2018-11-07T07:18:58.296Z,17.9
2018-11-07T07:19:59.816Z,17.9
2018-11-07T07:21:01.049Z,17.9
2018-11-07T07:22:02.650Z,17.9
2018-11-07T07:23:04.939Z,18
2018-11-07T07:24:15.108Z,17.9
2018-11-07T07:25:16.371Z,18
2018-11-07T07:26:17.658Z,18
2018-11-07T07:27:21.526Z,18
2018-11-07T07:28:23.054Z,18
2018-11-07T07:29:24.563Z,18.1
2018-11-07T07:30:25.830Z,18
2018-11-07T07:31:29.479Z,18.1
2018-11-07T07:32:33.703Z,18
2018-11-07T07:33:36.770Z,18.1
2018-11-07T07:34:41.231Z,18
2018-11-07T07:35:42.408Z,18.1
2018-11-07T07:36:43.617Z,18.1
2018-11-07T07:37:47.089Z,18.1
2018-11-07T07:38:50.987Z,18.1
2018-11-07T07:39:52.261Z,18.1
2018-11-07T07:40:58.415Z,18.1
2018-11-07T07:41:59.765Z,18.1
2018-11-07T07:43:01.046Z,18.1
2018-11-07T07:44:05.284Z,18.1
2018-11-07T07:45:06.591Z,18.2
2018-11-07T07:46:11.993Z,18.2
2018-11-07T07:47:15.469Z,18.2
2018-11-07T07:48:19.324Z,18.2
2018-11-07T07:49:20.693Z,18.1
2018-11-07T07:50:25.700Z,18.1
2018-11-07T07:51:26.949Z,18.2
2018-11-07T07:52:31.779Z,18.2
2018-11-07T07:53:35.813Z,18.2
2018-11-07T07:54:37.018Z,18.2
2018-11-07T07:55:43.479Z,18.2
2018-11-07T07:56:44.672Z,18.1
2018-11-07T07:57:51.616Z,18.1
2018-11-07T07:58:55.314Z,18.3
2018-11-07T07:59:57.918Z,18.2
2018-11-07T08:01:05.299Z,18.3
2018-11-07T08:02:09.332Z,18.2
2018-11-07T08:03:10.850Z,18.2
2018-11-07T08:04:18.799Z,18.2
2018-11-07T08:05:20.300Z,18.2
2018-11-07T08:06:21.898Z,18.1
2018-11-07T08:07:30.529Z,18.2
2018-11-07T08:08:33.098Z,18.3
2018-11-07T08:09:35.755Z,18.3
2018-11-07T08:10:47.495Z,18.3
2018-11-07T08:11:57.476Z,18.4
2018-11-07T08:13:01.504Z,18.2
2018-11-07T08:14:02.824Z,18.4
2018-11-07T08:15:05.575Z,18.4
2018-11-07T08:16:08.923Z,18.4
2018-11-07T08:17:11.647Z,18.4
2018-11-07T08:18:12.846Z,18.4
2018-11-07T08:19:14.056Z,18.4
2018-11-07T08:20:18.304Z,18.4
2018-11-07T08:21:19.798Z,18.3
2018-11-07T08:22:35.417Z,18.3
2018-11-07T08:23:49.508Z,18.4
2018-11-07T08:24:50.766Z,18.4
2018-11-07T08:25:54.498Z,18.5
2018-11-07T08:26:55.748Z,18.4
2018-11-07T08:27:57.029Z,18.5
2018-11-07T08:29:08.781Z,18.5
2018-11-07T08:30:10.198Z,18.5
2018-11-07T08:31:27.787Z,18.6
2018-11-07T08:32:32.375Z,18.7
2018-11-07T08:33:36.211Z,18.6
2018-11-07T08:34:46.641Z,18.7
2018-11-07T08:35:47.853Z,18.7
2018-11-07T08:36:50.952Z,18.7
2018-11-07T08:37:54.820Z,18.6
2018-11-07T08:39:04.507Z,18.8
2018-11-07T08:40:08.211Z,18.9
2018-11-07T08:41:09.496Z,18.8
2018-11-07T08:42:12.722Z,18.8
2018-11-07T08:43:17.566Z,19
2018-11-07T08:44:20.780Z,18.9
2018-11-07T08:45:33.718Z,18.9
2018-11-07T08:46:37.772Z,19
2018-11-07T08:47:44.949Z,18.9
2018-11-07T08:48:46.316Z,18.8
2018-11-07T08:49:47.750Z,18.8
2018-11-07T08:50:49.205Z,18.7
2018-11-07T08:51:50.477Z,18.8
2018-11-07T08:52:52.292Z,18.8
2018-11-07T08:53:55.788Z,18.8
2018-11-07T08:54:59.705Z,18.9
2018-11-07T08:56:00.890Z,18.9
2018-11-07T08:58:17.815Z,18.9
2018-11-07T08:59:19.314Z,18.8
2018-11-07T09:00:32.479Z,18.7
2018-11-07T09:02:38.190Z,18.8
2018-11-07T09:03:42.726Z,18.9
2018-11-07T09:04:45.537Z,18.9
2018-11-07T09:05:46.750Z,18.9
2018-11-07T09:06:48.703Z,19
2018-11-07T09:07:54.214Z,19
2018-11-07T09:08:58.325Z,19
2018-11-07T09:10:00.399Z,19
2018-11-07T09:11:04.687Z,19
2018-11-07T09:12:06.289Z,19
2018-11-07T09:13:09.763Z,19
2018-11-07T09:14:16.266Z,19
2018-11-07T09:15:17.735Z,19
2018-11-07T09:16:20.331Z,19.1
2018-11-07T09:17:31.169Z,19.1
2018-11-07T09:18:33.478Z,19
2018-11-07T09:19:40.816Z,19
2018-11-07T09:20:46.100Z,19.1
2018-11-07T09:21:50.764Z,19.1
2018-11-07T09:22:57.113Z,19.1
2018-11-07T09:23:58.372Z,19.1
2018-11-07T09:25:00.084Z,19
2018-11-07T09:26:01.385Z,19.1
2018-11-07T09:27:07.157Z,19.1
2018-11-07T09:28:11.568Z,19.1
2018-11-07T09:29:12.872Z,19.1
2018-11-07T09:30:16.307Z,19.1
2018-11-07T09:31:20.292Z,19
2018-11-07T09:32:25.037Z,19.2
2018-11-07T09:33:26.249Z,19.2
2018-11-07T09:34:30.255Z,19.1
2018-11-07T09:35:31.660Z,19.2
2018-11-07T09:36:33.133Z,19.2
2018-11-07T09:37:34.649Z,19.2
2018-11-07T09:38:39.129Z,19.2
2018-11-07T09:39:40.646Z,19.2
2018-11-07T09:40:44.577Z,19.2
2018-11-07T09:41:45.915Z,19.2
2018-11-07T09:42:48.539Z,19.2
2018-11-07T09:43:53.139Z,19.3
2018-11-07T09:44:54.473Z,19.2
2018-11-07T09:46:10.337Z,19.3
2018-11-07T09:47:14.174Z,19.2
2018-11-07T09:48:17.050Z,19.3
2018-11-07T09:49:18.305Z,19.4
2018-11-07T09:50:22.271Z,19.5
2018-11-07T09:51:26.564Z,19.5
2018-11-07T09:52:27.774Z,19.4
2018-11-07T09:53:33.364Z,19.4
2018-11-07T09:54:38.531Z,19.3
2018-11-07T09:55:42.555Z,19.4
2018-11-07T09:56:43.979Z,19.4
2018-11-07T09:57:45.283Z,19.4
2018-11-07T09:58:46.703Z,19.5
2018-11-07T09:59:50.378Z,19.4
2018-11-07T10:00:51.853Z,19.5
2018-11-07T10:01:55.320Z,19.5
2018-11-07T10:02:56.640Z,19.6
2018-11-07T10:03:58.235Z,19.6
2018-11-07T10:05:01.075Z,19.6
2018-11-07T10:06:03.714Z,19.6
2018-11-07T10:07:04.991Z,19.6
2018-11-07T10:08:10.422Z,19.6
2018-11-07T10:09:11.703Z,19.6
2018-11-07T10:10:13.286Z,19.5
2018-11-07T10:11:17.264Z,19.7
2018-11-07T10:12:33.304Z,19.7
2018-11-07T10:13:35.626Z,19.8
2018-11-07T10:14:36.965Z,19.8
2018-11-07T10:15:43.889Z,19.9
2018-11-07T10:16:50.705Z,19.9
2018-11-07T10:17:54.326Z,20
2018-11-07T10:18:58.852Z,19.9
2018-11-07T10:20:03.135Z,19.8
2018-11-07T10:21:17.924Z,19.8
2018-11-07T10:22:28.734Z,19.7
2018-11-07T10:23:38.390Z,19.9
2018-11-07T10:24:50.464Z,20
2018-11-07T10:25:54.097Z,20
2018-11-07T10:27:00.352Z,19.9
2018-11-07T10:28:08.545Z,20
2018-11-07T10:29:10.921Z,20
2018-11-07T10:30:12.464Z,19.9
2018-11-07T10:31:22.337Z,20
2018-11-07T10:32:23.700Z,20
2018-11-07T10:33:24.983Z,19.9
2018-11-07T10:34:26.331Z,20
2018-11-07T10:35:28.980Z,20
2018-11-07T10:36:33.234Z,20
2018-11-07T10:37:45.202Z,20
2018-11-07T10:38:49.324Z,20.1
2018-11-07T10:39:50.807Z,20.1
2018-11-07T10:40:52.364Z,20
2018-11-07T10:41:53.820Z,20.1
2018-11-07T10:43:02.452Z,20.3
2018-11-07T10:44:09.497Z,20.3
2018-11-07T10:45:10.725Z,20.3
2018-11-07T10:46:12.093Z,20.2
2018-11-07T10:47:18.008Z,20.2
2018-11-07T10:48:21.507Z,20.2
2018-11-07T10:49:24.928Z,20.1
2018-11-07T10:50:26.215Z,20
2018-11-07T10:51:28.706Z,20
2018-11-07T10:52:30.078Z,19.9
2018-11-07T10:53:34.340Z,19.9
2018-11-07T10:54:41.795Z,19.9
2018-11-07T10:55:47.907Z,19.9
2018-11-07T10:56:51.307Z,19.9
2018-11-07T10:57:55.900Z,19.9
2018-11-07T10:59:16.280Z,20
2018-11-07T11:00:23.432Z,20
2018-11-07T11:01:31.094Z,19.9
2018-11-07T11:02:39.094Z,19.8
2018-11-07T11:03:43.850Z,19.9
2018-11-07T11:04:48.594Z,19.8
2018-11-07T11:05:49.874Z,19.8
2018-11-07T11:06:53.695Z,19.8
2018-11-07T11:07:59.142Z,19.9
2018-11-07T11:09:02.447Z,19.9
2018-11-07T11:10:15.934Z,19.9
2018-11-07T11:11:18.724Z,19.8
2018-11-07T11:12:22.424Z,19.9
2018-11-07T11:13:23.620Z,19.9
2018-11-07T11:14:24.920Z,19.9
2018-11-07T11:15:26.178Z,19.9
2018-11-07T11:16:27.409Z,19.9
2018-11-07T11:17:32.312Z,19.8
2018-11-07T11:18:37.928Z,19.8
2018-11-07T11:19:39.264Z,19.9
2018-11-07T11:20:54.567Z,19.9
2018-11-07T11:21:56.284Z,19.9
2018-11-07T11:23:06.226Z,19.9
2018-11-07T11:24:12.810Z,20
2018-11-07T11:25:14.345Z,20.1
2018-11-07T11:26:18.642Z,20.1
2018-11-07T11:27:19.992Z,20.1
2018-11-07T11:28:24.152Z,20.1
2018-11-07T11:29:27.717Z,20.1
2018-11-07T11:30:33.269Z,20
2018-11-07T11:31:36.190Z,20.1
2018-11-07T11:32:40.286Z,20.1
2018-11-07T11:33:41.617Z,20.1
2018-11-07T11:34:50.611Z,20.2
2018-11-07T11:35:51.848Z,20.2
2018-11-07T11:36:55.723Z,20.2
2018-11-07T11:38:08.467Z,20.2
2018-11-07T11:39:19.093Z,20.3
2018-11-07T11:40:28.670Z,20.3
2018-11-07T11:41:30.206Z,20.2
2018-11-07T11:42:35.748Z,20.3
2018-11-07T11:43:37.205Z,20.3
2018-11-07T11:44:45.788Z,20.2
2018-11-07T11:45:50.382Z,20.3
2018-11-07T11:46:56.620Z,20.3
2018-11-07T11:48:00.588Z,20.3
2018-11-07T11:49:01.945Z,20.3
2018-11-07T11:50:03.134Z,20.1
2018-11-07T11:51:08.831Z,20.1
2018-11-07T11:52:21.208Z,20.2
2018-11-07T11:53:23.402Z,20.2
2018-11-07T11:54:26.409Z,20.2
2018-11-07T11:55:27.668Z,20.3
2018-11-07T11:56:30.294Z,20.4
2018-11-07T11:57:31.551Z,20.3
2018-11-07T11:58:32.764Z,20.3
2018-11-07T11:59:37.091Z,20.3
2018-11-07T12:00:40.653Z,20.3
2018-11-07T12:01:42.173Z,20.3
2018-11-07T12:02:43.660Z,20.3
2018-11-07T12:03:44.990Z,20.3
2018-11-07T12:04:49.047Z,20.4
2018-11-07T12:05:51.788Z,20.3
2018-11-07T12:06:59.301Z,20.3
2018-11-07T12:08:11.024Z,20.3
2018-11-07T12:09:13.342Z,20.4
2018-11-07T12:10:16.516Z,20.4
2018-11-07T12:12:42.113Z,20.4
2018-11-07T12:13:49.078Z,20.4
2018-11-07T12:14:59.446Z,20.4
2018-11-07T12:16:04.315Z,20.4
2018-11-07T12:17:05.654Z,20.5
2018-11-07T12:18:17.371Z,20.4
2018-11-07T12:19:21.129Z,20.3
2018-11-07T12:20:22.390Z,20.4
2018-11-07T12:21:26.197Z,20.4
2018-11-07T12:22:28.165Z,20.4
2018-11-07T12:23:39.096Z,20.4
2018-11-07T12:24:54.141Z,20.4
2018-11-07T12:25:55.456Z,20.5
2018-11-07T12:26:56.812Z,20.4
2018-11-07T12:28:02.459Z,20.3
2018-11-07T12:29:10.492Z,20.4
2018-11-07T12:30:17.970Z,20.4
2018-11-07T12:32:59.924Z,20.4
2018-11-07T12:34:06.874Z,20.5
2018-11-07T12:35:08.295Z,20.5
2018-11-07T12:36:09.817Z,20.5
2018-11-07T12:37:17.539Z,20.5
2018-11-07T12:38:21.041Z,20.5
2018-11-07T12:39:22.385Z,20.4
2018-11-07T12:40:23.989Z,20.6
2018-11-07T12:41:28.621Z,20.5
2018-11-07T12:42:29.959Z,20.5
2018-11-07T12:43:36.154Z,20.5
2018-11-07T12:44:37.668Z,20.4
2018-11-07T12:45:43.704Z,20.5
2018-11-07T12:46:49.707Z,20.5
2018-11-07T12:47:51.650Z,20.4
2018-11-07T12:48:53.074Z,20.4
2018-11-07T12:49:54.510Z,20.4
2018-11-07T12:51:04.164Z,20.4
2018-11-07T12:52:05.637Z,20.4
2018-11-07T12:53:06.947Z,20.4
2018-11-07T12:54:12.014Z,20.4
2018-11-07T12:55:13.549Z,20.4
2018-11-07T12:56:19.060Z,20.4
2018-11-07T12:57:23.395Z,20.4
2018-11-07T12:58:24.757Z,20.4
2018-11-07T12:59:33.460Z,20.3
2018-11-07T13:00:37.869Z,20.4
2018-11-07T13:03:05.869Z,20.5
2018-11-07T13:04:12.262Z,20.4
2018-11-07T13:05:13.716Z,20.4
2018-11-07T13:06:16.415Z,20.3
2018-11-07T13:07:21.201Z,20.4
2018-11-07T13:08:24.892Z,20.4
2018-11-07T13:09:27.739Z,20.3
2018-11-07T13:10:28.968Z,20.4
2018-11-07T13:11:35.319Z,20.4
2018-11-07T13:12:38.689Z,20.4
2018-11-07T13:13:48.699Z,20.3
2018-11-07T13:15:07.577Z,20.3
2018-11-07T13:16:11.878Z,20.3
2018-11-07T13:17:18.064Z,20.3
2018-11-07T13:18:27.138Z,20.4
2018-11-07T13:19:34.658Z,20.4
2018-11-07T13:20:37.836Z,20.4
2018-11-07T13:21:45.490Z,20.4
2018-11-07T13:22:46.838Z,20.3
2018-11-07T13:23:48.287Z,20.4
2018-11-07T13:24:49.654Z,20.4
2018-11-07T13:25:56.392Z,20.4
2018-11-07T13:27:16.725Z,20.3
2018-11-07T13:28:19.371Z,20.4
2018-11-07T13:29:20.805Z,20.4
2018-11-07T13:30:28.270Z,20.4
2018-11-07T13:31:30.996Z,20.4
2018-11-07T13:32:49.314Z,20.4
2018-11-07T13:33:50.667Z,20.3
2018-11-07T13:34:58.308Z,20.3
2018-11-07T13:36:01.082Z,20.3
2018-11-07T13:37:07.424Z,20.3
2018-11-07T13:38:08.891Z,20.4
2018-11-07T13:39:15.373Z,20.4
2018-11-07T13:40:21.521Z,20.4
2018-11-07T13:41:26.177Z,20.3
2018-11-07T13:42:27.502Z,20.4
2018-11-07T13:43:36.254Z,20.4
2018-11-07T13:44:38.805Z,20.4
2018-11-07T13:45:50.007Z,20.4
2018-11-07T13:46:52.906Z,20.4
2018-11-07T13:47:54.175Z,20.4
2018-11-07T13:49:01.071Z,20.4
2018-11-07T13:50:14.449Z,20.4
2018-11-07T13:51:25.668Z,20.3
2018-11-07T13:52:27.094Z,20.4
2018-11-07T13:53:29.291Z,20.4
2018-11-07T13:54:31.136Z,20.4
2018-11-07T13:55:38.332Z,20.3
2018-11-07T13:56:39.595Z,20.3
2018-11-07T13:57:45.232Z,20.3
2018-11-07T13:58:52.499Z,20.3
2018-11-07T13:59:53.786Z,20.3
2018-11-07T14:00:58.822Z,20.2
2018-11-07T14:02:10.798Z,20.1
2018-11-07T14:03:17.557Z,20.2
2018-11-07T14:04:23.168Z,20.2
2018-11-07T14:05:24.692Z,20.2
2018-11-07T14:06:28.743Z,20.2
2018-11-07T14:07:36.244Z,20.2
2018-11-07T14:08:41.681Z,20.2
2018-11-07T14:09:48.520Z,20.2
2018-11-07T14:10:53.001Z,20.2
2018-11-07T14:11:54.322Z,20.2
2018-11-07T14:12:55.606Z,20.2
2018-11-07T14:14:05.477Z,20.3